createdAt,value
2018-03-18T00:01:41.981Z,101237.09
2018-03-18T00:04:07.866Z,101235.88
2018-03-18T00:06:33.861Z,101238.28
2018-03-18T00:08:59.714Z,101241.66
2018-03-18T00:11:25.573Z,101242.67
2018-03-18T00:13:51.474Z,101247.84
2018-03-18T00:16:17.336Z,101255.08
2018-03-18T00:18:43.263Z,101248.39
2018-03-18T00:21:09.189Z,101253.06
2018-03-18T00:23:35.041Z,101249.78
2018-03-18T00:26:00.895Z,101258.89
2018-03-18T00:28:26.792Z,101258.09
2018-03-18T00:30:52.716Z,101254.94
2018-03-18T00:33:18.565Z,101265.52
2018-03-18T00:35:44.468Z,101261.52
2018-03-18T00:38:10.308Z,101264.64
2018-03-18T00:40:36.181Z,101262.69
2018-03-18T00:43:02.189Z,101266.84
2018-03-18T00:45:28.044Z,101260.75
2018-03-18T00:47:53.893Z,101261.67
2018-03-18T00:50:19.797Z,101255.25
2018-03-18T00:52:45.632Z,101266.00
2018-03-18T00:55:11.565Z,101264.79
2018-03-18T00:57:37.768Z,101258.88
2018-03-18T01:00:03.632Z,101270.41
2018-03-18T01:02:29.562Z,101270.55
2018-03-18T01:04:55.480Z,101273.30
2018-03-18T01:07:21.412Z,101266.08
2018-03-18T01:09:47.258Z,101270.92
2018-03-18T01:12:13.147Z,101274.44
2018-03-18T01:14:39.005Z,101267.80
2018-03-18T01:17:04.852Z,101261.48
2018-03-18T01:19:30.854Z,101269.16
2018-03-18T01:21:56.790Z,101269.41
2018-03-18T01:24:22.670Z,101275.39
2018-03-18T01:26:48.870Z,101269.92
2018-03-18T01:29:14.766Z,101275.57
2018-03-18T01:31:40.729Z,101264.81
2018-03-18T01:34:06.924Z,101263.78
2018-03-18T01:36:32.772Z,101272.81
2018-03-18T01:38:58.618Z,101262.28
2018-03-18T01:41:24.505Z,101266.10
2018-03-18T01:43:50.445Z,101270.20
2018-03-18T01:46:16.296Z,101266.76
2018-03-18T01:48:42.198Z,101269.14
2018-03-18T01:51:08.050Z,101265.61
2018-03-18T01:53:33.896Z,101264.84
2018-03-18T01:55:59.864Z,101262.61
2018-03-18T01:58:25.726Z,101266.61
2018-03-18T02:00:51.682Z,101266.86
2018-03-18T02:03:18.055Z,101270.48
2018-03-18T02:05:43.916Z,101266.04
2018-03-18T02:08:09.861Z,101265.71
2018-03-18T02:10:35.763Z,101263.73
2018-03-18T02:13:01.627Z,101266.52
2018-03-18T02:15:27.496Z,101268.94
2018-03-18T02:17:53.794Z,101264.28
2018-03-18T02:20:19.758Z,101264.77
2018-03-18T02:22:45.661Z,101268.15
2018-03-18T02:25:11.565Z,101260.77
2018-03-18T02:27:37.421Z,101268.63
2018-03-18T02:30:04.218Z,101260.97
2018-03-18T02:32:30.294Z,101268.35
2018-03-18T02:34:56.170Z,101269.72
2018-03-18T02:37:22.022Z,101267.70
2018-03-18T02:39:47.945Z,101264.51
2018-03-18T02:42:13.818Z,101262.74
2018-03-18T02:44:39.772Z,101271.09
2018-03-18T02:47:05.677Z,101275.13
2018-03-18T02:49:31.533Z,101276.83
2018-03-18T02:51:57.396Z,101276.03
2018-03-18T02:54:23.390Z,101275.88
2018-03-18T02:56:49.437Z,101279.20
2018-03-18T02:59:15.304Z,101274.67
2018-03-18T03:01:41.229Z,101272.23
2018-03-18T03:04:07.141Z,101280.41
2018-03-18T03:06:32.989Z,101264.70
2018-03-18T03:08:58.965Z,101274.45
2018-03-18T03:11:24.870Z,101272.12
2018-03-18T03:13:50.730Z,101279.84
2018-03-18T03:16:16.703Z,101280.30
2018-03-18T03:18:42.560Z,101285.15
2018-03-18T03:21:08.491Z,101278.57
2018-03-18T03:23:34.453Z,101276.97
2018-03-18T03:26:00.312Z,101285.39
2018-03-18T03:28:26.208Z,101285.87
2018-03-18T03:30:52.109Z,101291.00
2018-03-18T03:33:18.049Z,101286.15
2018-03-18T03:35:43.900Z,101292.16
2018-03-18T03:38:09.798Z,101296.77
2018-03-18T03:40:35.694Z,101294.69
2018-03-18T03:43:01.545Z,101298.89
2018-03-18T03:45:27.517Z,101303.06
2018-03-18T03:47:53.441Z,101302.45
2018-03-18T03:50:19.619Z,101304.78
2018-03-18T03:52:45.581Z,101298.13
2018-03-18T03:55:11.456Z,101303.73
2018-03-18T03:57:37.390Z,101311.27
2018-03-18T04:00:03.316Z,101304.63
2018-03-18T04:02:29.164Z,101306.94
2018-03-18T04:04:55.218Z,101312.07
2018-03-18T04:07:21.179Z,101310.22
2018-03-18T04:09:47.124Z,101308.70
2018-03-18T04:12:12.981Z,101303.38
2018-03-18T04:14:38.894Z,101301.89
2018-03-18T04:17:04.804Z,101311.05
2018-03-18T04:19:30.655Z,101315.87
2018-03-18T04:21:56.633Z,101308.70
2018-03-18T04:24:22.492Z,101316.06
2018-03-18T04:26:49.033Z,101296.51
2018-03-18T04:29:15.914Z,101309.14
2018-03-18T04:31:41.861Z,101312.66
2018-03-18T04:34:07.791Z,101317.30
2018-03-18T04:36:33.713Z,101312.66
2018-03-18T04:38:59.563Z,101316.14
2018-03-18T04:41:25.492Z,101323.83
2018-03-18T04:43:52.129Z,101319.06
2018-03-18T04:46:18.013Z,101314.86
2018-03-18T04:48:43.910Z,101330.70
2018-03-18T04:51:10.181Z,101324.97
2018-03-18T04:53:36.046Z,101324.87
2018-03-18T04:56:01.903Z,101319.84
2018-03-18T04:58:27.882Z,101326.97
2018-03-18T05:00:53.746Z,101326.42
2018-03-18T05:03:19.610Z,101322.05
2018-03-18T05:05:45.524Z,101318.88
2018-03-18T05:08:11.485Z,101344.80
2018-03-18T05:10:37.352Z,101338.36
2018-03-18T05:13:03.253Z,101345.00
2018-03-18T05:15:29.105Z,101344.28
2018-03-18T05:17:54.994Z,101335.27
2018-03-18T05:20:20.898Z,101343.00
2018-03-18T05:22:46.753Z,101344.88
2018-03-18T05:25:12.596Z,101350.20
2018-03-18T05:27:38.498Z,101340.71
2018-03-18T05:30:04.345Z,101352.98
2018-03-18T05:32:30.207Z,101342.33
2018-03-18T05:34:56.169Z,101344.89
2018-03-18T05:37:22.041Z,101347.02
2018-03-18T05:39:47.925Z,101347.98
2018-03-18T05:42:13.825Z,101358.36
2018-03-18T05:44:39.665Z,101358.61
2018-03-18T05:47:05.520Z,101361.42
2018-03-18T05:49:31.408Z,101362.30
2018-03-18T05:51:57.281Z,101351.58
2018-03-18T05:54:23.147Z,101358.28
2018-03-18T05:56:49.073Z,101367.67
2018-03-18T05:59:14.940Z,101370.95
2018-03-18T06:01:40.805Z,101367.55
2018-03-18T06:04:08.447Z,101369.23
2018-03-18T06:06:34.487Z,101377.19
2018-03-18T06:09:00.374Z,101369.73
2018-03-18T06:11:26.310Z,101374.23
2018-03-18T06:13:52.176Z,101379.55
2018-03-18T06:16:18.049Z,101381.08
2018-03-18T06:18:43.957Z,101373.42
2018-03-18T06:21:09.809Z,101389.55
2018-03-18T06:23:35.682Z,101389.34
2018-03-18T06:26:01.602Z,101390.35
2018-03-18T06:28:27.458Z,101387.50
2018-03-18T06:30:53.312Z,101390.18
2018-03-18T06:33:19.260Z,101390.82
2018-03-18T06:35:45.162Z,101413.09
2018-03-18T06:38:11.005Z,101394.70
2018-03-18T06:40:36.900Z,101399.29
2018-03-18T06:43:02.753Z,101410.39
2018-03-18T06:45:28.601Z,101398.44
2018-03-18T06:47:54.517Z,101405.65
2018-03-18T06:50:20.369Z,101415.92
2018-03-18T06:52:46.212Z,101409.42
2018-03-18T06:55:12.461Z,101420.17
2018-03-18T06:57:38.323Z,101416.63
2018-03-18T07:00:04.206Z,101421.38
2018-03-18T07:02:30.100Z,101422.44
2018-03-18T07:04:55.949Z,101419.87
2018-03-18T07:07:21.798Z,101418.45
2018-03-18T07:09:47.705Z,101425.95
2018-03-18T07:12:13.544Z,101427.31
2018-03-18T07:14:39.404Z,101428.31
2018-03-18T07:17:05.351Z,101420.11
2018-03-18T07:19:31.212Z,101430.55
2018-03-18T07:21:57.078Z,101435.36
2018-03-18T07:24:22.989Z,101435.79
2018-03-18T07:26:48.854Z,101434.81
2018-03-18T07:29:14.725Z,101434.33
2018-03-18T07:31:40.629Z,101437.06
2018-03-18T07:34:06.486Z,101422.89
2018-03-18T07:36:32.489Z,101434.03
2018-03-18T07:38:58.619Z,101442.27
2018-03-18T07:41:24.525Z,101441.59
2018-03-18T07:43:50.424Z,101426.04
2018-03-18T07:46:16.317Z,101432.82
2018-03-18T07:48:42.286Z,101437.33
2018-03-18T07:51:08.174Z,101440.36
2018-03-18T07:53:34.075Z,101439.79
2018-03-18T07:55:59.921Z,101451.05
2018-03-18T07:58:25.768Z,101446.80
2018-03-18T08:00:51.757Z,101445.74
2018-03-18T08:03:17.622Z,101451.98
2018-03-18T08:05:43.483Z,101446.16
2018-03-18T08:08:09.387Z,101434.22
2018-03-18T08:10:35.249Z,101433.02
2018-03-18T08:13:01.209Z,101434.27
2018-03-18T08:15:27.095Z,101446.55
2018-03-18T08:17:52.970Z,101445.20
2018-03-18T08:20:18.894Z,101431.28
2018-03-18T08:22:45.151Z,101439.94
2018-03-18T08:25:11.131Z,101447.45
2018-03-18T08:27:37.017Z,101437.91
2018-03-18T08:30:02.936Z,101446.63
2018-03-18T08:32:28.859Z,101450.25
2018-03-18T08:34:54.849Z,101442.48
2018-03-18T08:37:20.854Z,101453.44
2018-03-18T08:39:47.035Z,101441.30
2018-03-18T08:42:13.048Z,101449.30
2018-03-18T08:44:38.992Z,101452.31
2018-03-18T08:47:04.861Z,101444.72
2018-03-18T08:49:30.822Z,101434.07
2018-03-18T08:51:57.270Z,101454.06
2018-03-18T08:54:23.120Z,101442.75
2018-03-18T08:56:49.037Z,101440.02
2018-03-18T08:59:14.988Z,101438.78
2018-03-18T09:01:40.916Z,101451.02
2018-03-18T09:04:06.801Z,101439.15
2018-03-18T09:06:32.754Z,101438.58
2018-03-18T09:08:58.675Z,101441.08
2018-03-18T09:11:24.542Z,101433.19
2018-03-18T09:13:50.542Z,101442.72
2018-03-18T09:16:16.414Z,101441.66
2018-03-18T09:18:42.273Z,101439.20
2018-03-18T09:21:08.246Z,101428.84
2018-03-18T09:23:34.129Z,101424.97
2018-03-18T09:26:00.154Z,101429.14
2018-03-18T09:28:26.377Z,101421.02
2018-03-18T09:30:52.259Z,101424.05
2018-03-18T09:33:18.169Z,101408.89
2018-03-18T09:35:44.077Z,101439.25
2018-03-18T09:38:10.014Z,101425.54
2018-03-18T09:40:35.873Z,101425.71
2018-03-18T09:43:01.781Z,101425.25
2018-03-18T09:45:27.693Z,101407.44
2018-03-18T09:47:53.537Z,101419.87
2018-03-18T09:50:19.554Z,101403.77
2018-03-18T09:52:45.426Z,101416.11
2018-03-18T09:55:11.269Z,101417.32
2018-03-18T09:57:37.226Z,101422.25
2018-03-18T10:00:03.131Z,101420.55
2018-03-18T10:02:29.099Z,101417.08
2018-03-18T10:04:55.002Z,101392.69
2018-03-18T10:07:20.886Z,101418.62
2018-03-18T10:09:46.900Z,101409.44
2018-03-18T10:12:12.823Z,101403.41
2018-03-18T10:14:38.777Z,101406.65
2018-03-18T10:17:04.622Z,101401.47
2018-03-18T10:19:30.525Z,101401.56
2018-03-18T10:21:56.427Z,101397.87
2018-03-18T10:24:22.294Z,101407.09
2018-03-18T10:26:48.609Z,101409.22
2018-03-18T10:29:14.469Z,101399.37
2018-03-18T10:31:40.350Z,101395.73
2018-03-18T10:34:06.313Z,101392.84
2018-03-18T10:36:32.228Z,101397.62
2018-03-18T10:38:58.174Z,101388.16
2018-03-18T10:41:24.121Z,101402.75
2018-03-18T10:43:49.978Z,101381.72
2018-03-18T10:46:15.885Z,101401.03
2018-03-18T10:48:41.841Z,101383.40
2018-03-18T10:51:07.762Z,101381.48
2018-03-18T10:53:33.647Z,101374.39
2018-03-18T10:55:59.902Z,101390.05
2018-03-18T10:58:25.841Z,101384.69
2018-03-18T11:00:52.627Z,101376.69
2018-03-18T11:03:18.666Z,101394.69
2018-03-18T11:05:44.528Z,101382.59
2018-03-18T11:08:10.377Z,101377.80
2018-03-18T11:10:36.321Z,101387.94
2018-03-18T11:13:03.017Z,101380.86
2018-03-18T11:15:28.965Z,101362.19
2018-03-18T11:17:55.252Z,101378.23
2018-03-18T11:20:21.116Z,101372.67
2018-03-18T11:22:47.053Z,101373.72
2018-03-18T11:25:13.306Z,101366.22
2018-03-18T11:27:39.252Z,101346.52
2018-03-18T11:30:05.121Z,101360.70
2018-03-18T11:32:31.033Z,101359.47
2018-03-18T11:34:56.945Z,101353.05
2018-03-18T11:37:22.800Z,101362.50
2018-03-18T11:39:48.790Z,101364.89
2018-03-18T11:42:14.648Z,101353.20
2018-03-18T11:44:40.505Z,101363.74
2018-03-18T11:47:06.469Z,101356.03
2018-03-18T11:49:32.394Z,101351.86
2018-03-18T11:51:58.293Z,101351.00
2018-03-18T11:54:24.275Z,101341.40
2018-03-18T11:56:50.092Z,101356.69
2018-03-18T11:59:15.997Z,101339.44
2018-03-18T12:01:41.955Z,101344.52
2018-03-18T12:04:07.931Z,101345.86
2018-03-18T12:06:33.772Z,101345.23
2018-03-18T12:08:59.690Z,101357.43
2018-03-18T12:11:25.601Z,101330.55
2018-03-18T12:13:51.462Z,101341.95
2018-03-18T12:16:17.467Z,101336.88
2018-03-18T12:18:43.328Z,101322.16
2018-03-18T12:21:09.205Z,101334.85
2018-03-18T12:23:36.189Z,101326.44
2018-03-18T12:26:02.059Z,101336.22
2018-03-18T12:28:27.997Z,101321.73
2018-03-18T12:30:54.268Z,101325.09
2018-03-18T12:33:20.133Z,101327.91
2018-03-18T12:35:46.054Z,101312.63
2018-03-18T12:38:11.936Z,101319.67
2018-03-18T12:40:37.879Z,101313.62
2018-03-18T12:43:16.214Z,101301.62
2018-03-18T12:45:42.073Z,101315.83
2018-03-18T12:48:08.100Z,101312.29
2018-03-18T12:50:34.009Z,101306.91
2018-03-18T12:52:59.947Z,101315.19
2018-03-18T12:55:25.792Z,101301.84
2018-03-18T12:57:51.693Z,101307.13
2018-03-18T13:00:17.607Z,101309.27
2018-03-18T13:02:43.455Z,101317.17
2018-03-18T13:05:09.437Z,101308.78
2018-03-18T13:07:35.293Z,101306.30
2018-03-18T13:10:01.144Z,101308.32
2018-03-18T13:12:27.140Z,101300.07
2018-03-18T13:14:52.973Z,101299.05
2018-03-18T13:17:19.032Z,101295.55
2018-03-18T13:19:44.946Z,101303.33
2018-03-18T13:22:10.792Z,101298.79
2018-03-18T13:24:36.697Z,101307.56
2018-03-18T13:27:02.612Z,101312.35
2018-03-18T13:29:28.540Z,101292.70
2018-03-18T13:31:54.390Z,101306.09
2018-03-18T13:34:20.597Z,101291.47
2018-03-18T13:36:46.519Z,101292.59
2018-03-18T13:39:12.402Z,101297.70
2018-03-18T13:41:38.393Z,101286.75
2018-03-18T13:44:04.276Z,101302.47
2018-03-18T13:46:30.137Z,101288.45
2018-03-18T13:48:56.088Z,101289.31
2018-03-18T13:51:21.929Z,101290.86
2018-03-18T13:53:47.862Z,101288.89
2018-03-18T13:56:13.781Z,101293.00
2018-03-18T13:58:39.695Z,101283.68
2018-03-18T14:01:05.598Z,101279.16
2018-03-18T14:03:31.488Z,101287.84
2018-03-18T14:05:57.437Z,101290.55
2018-03-18T14:08:23.282Z,101283.70
2018-03-18T14:10:49.189Z,101281.67
2018-03-18T14:13:15.097Z,101283.94
2018-03-18T14:15:40.948Z,101286.22
2018-03-18T14:18:06.925Z,101285.50
2018-03-18T14:20:32.797Z,101271.95
2018-03-18T14:22:58.648Z,101272.14
2018-03-18T14:25:24.584Z,101276.20
2018-03-18T14:27:50.442Z,101267.95
2018-03-18T14:30:16.383Z,101265.27
2018-03-18T14:32:42.284Z,101276.16
2018-03-18T14:35:08.137Z,101272.98
2018-03-18T14:37:34.032Z,101272.30
2018-03-18T14:39:59.928Z,101277.94
2018-03-18T14:42:25.865Z,101270.38
2018-03-18T14:44:51.720Z,101272.67
2018-03-18T14:47:17.609Z,101274.05
2018-03-18T14:49:43.519Z,101269.41
2018-03-18T14:52:09.398Z,101278.26
2018-03-18T14:54:35.411Z,101278.17
2018-03-18T14:57:01.285Z,101268.45
2018-03-18T14:59:27.136Z,101270.99
2018-03-18T15:01:53.092Z,101266.05
2018-03-18T15:04:18.958Z,101272.81
2018-03-18T15:06:44.886Z,101262.45
2018-03-18T15:09:10.782Z,101275.14
2018-03-18T15:11:36.624Z,101255.34
2018-03-18T15:14:02.547Z,101249.55
2018-03-18T15:16:28.584Z,101259.59
2018-03-18T15:18:54.536Z,101264.54
2018-03-18T15:21:20.386Z,101258.81
2018-03-18T15:23:46.288Z,101252.09
2018-03-18T15:26:12.199Z,101253.42
2018-03-18T15:28:38.052Z,101258.36
2018-03-18T15:31:04.045Z,101250.59
2018-03-18T15:33:29.900Z,101254.20
2018-03-18T15:35:55.745Z,101248.20
2018-03-18T15:38:21.701Z,101236.33
2018-03-18T15:40:47.549Z,101251.24
2018-03-18T15:43:13.484Z,101241.98
2018-03-18T15:45:39.392Z,101241.55
2018-03-18T15:48:05.246Z,101250.18
2018-03-18T15:50:31.154Z,101249.99
2018-03-18T15:52:57.041Z,101247.30
2018-03-18T15:55:22.984Z,101239.27
2018-03-18T15:57:48.820Z,101241.31
2018-03-18T16:00:14.712Z,101252.53
2018-03-18T16:02:40.613Z,101245.96
2018-03-18T16:05:06.464Z,101248.39
2018-03-18T16:07:32.449Z,101245.45
2018-03-18T16:09:58.305Z,101248.97
2018-03-18T16:12:24.157Z,101251.81
2018-03-18T16:14:50.102Z,101242.69
2018-03-18T16:17:15.945Z,101239.33
2018-03-18T16:19:41.882Z,101242.66
2018-03-18T16:22:07.784Z,101244.28
2018-03-18T16:24:33.625Z,101245.81
2018-03-18T16:26:59.526Z,101247.20
2018-03-18T16:29:37.649Z,101251.95
2018-03-18T16:32:03.605Z,101252.64
2018-03-18T16:34:29.440Z,101241.36
2018-03-18T16:36:55.341Z,101241.34
2018-03-18T16:39:21.257Z,101244.56
2018-03-18T16:41:47.105Z,101229.89
2018-03-18T16:44:13.080Z,101252.16
2018-03-18T16:46:38.937Z,101249.16
2018-03-18T16:49:04.794Z,101244.27
2018-03-18T16:51:30.753Z,101254.89
2018-03-18T16:53:56.613Z,101247.34
2018-03-18T16:56:22.544Z,101258.21
2018-03-18T16:58:48.441Z,101261.14
2018-03-18T17:01:14.297Z,101260.40
2018-03-18T17:03:40.218Z,101257.98
2018-03-18T17:06:06.126Z,101268.07
2018-03-18T17:08:32.092Z,101266.37
2018-03-18T17:10:57.958Z,101264.13
2018-03-18T17:13:24.191Z,101276.47
2018-03-18T17:15:50.108Z,101283.53
2018-03-18T17:18:15.953Z,101280.06
2018-03-18T17:20:41.938Z,101283.97
2018-03-18T17:23:07.805Z,101286.37
2018-03-18T17:25:33.657Z,101290.70
2018-03-18T17:27:59.638Z,101293.83
2018-03-18T17:30:25.490Z,101298.97
2018-03-18T17:32:51.440Z,101307.39
2018-03-18T17:35:17.335Z,101306.30
2018-03-18T17:37:43.185Z,101305.56
2018-03-18T17:40:09.109Z,101315.97
2018-03-18T17:42:34.997Z,101318.41
2018-03-18T17:45:13.113Z,101308.39
2018-03-18T17:47:51.444Z,101318.77
2018-03-18T17:50:18.357Z,101320.25
2018-03-18T17:52:56.617Z,101320.06
2018-03-18T17:55:29.530Z,101320.60
2018-03-18T17:57:55.387Z,101326.00
2018-03-18T18:00:21.344Z,101324.94
2018-03-18T18:02:47.190Z,101331.36
2018-03-18T18:05:13.076Z,101335.06
2018-03-18T18:07:39.078Z,101326.88
2018-03-18T18:10:05.025Z,101320.88
2018-03-18T18:12:30.934Z,101329.20
2018-03-18T18:14:57.534Z,101333.36
2018-03-18T18:17:23.513Z,101339.43
2018-03-18T18:19:49.405Z,101333.50
2018-03-18T18:22:15.371Z,101334.71
2018-03-18T18:24:41.290Z,101336.94
2018-03-18T18:27:07.201Z,101343.13
2018-03-18T18:29:35.616Z,101342.69
2018-03-18T18:32:01.465Z,101346.16
2018-03-18T18:34:27.342Z,101348.12
2018-03-18T18:36:53.241Z,101347.12
2018-03-18T20:34:10.738Z,101414.84
2018-03-18T20:36:36.804Z,101423.19
2018-03-18T20:39:02.744Z,101418.38
2018-03-18T20:41:29.384Z,101420.31
2018-03-18T20:43:55.257Z,101425.25
2018-03-18T20:46:21.118Z,101417.36
2018-03-18T20:48:47.061Z,101418.55
2018-03-18T20:51:13.160Z,101413.56
2018-03-18T20:53:39.321Z,101423.33
2018-03-18T20:56:05.248Z,101414.22
2018-03-18T20:58:31.384Z,101415.40
2018-03-18T21:00:57.254Z,101417.09
2018-03-18T21:03:23.562Z,101413.13
2018-03-18T21:05:49.488Z,101414.11
2018-03-18T21:08:15.336Z,101410.65
2018-03-18T21:10:41.566Z,101417.97
2018-03-18T21:13:07.430Z,101414.34
2018-03-18T21:15:33.284Z,101414.67
2018-03-18T21:17:59.177Z,101427.63
2018-03-18T21:20:25.028Z,101413.13
2018-03-18T21:22:50.877Z,101421.28
2018-03-18T21:25:16.776Z,101414.52
2018-03-18T21:27:42.621Z,101409.66
2018-03-18T21:30:08.863Z,101415.36
2018-03-18T21:32:34.872Z,101414.55
2018-03-18T21:35:00.857Z,101412.67
2018-03-18T21:37:26.745Z,101406.98
2018-03-18T21:39:52.641Z,101412.13
2018-03-18T21:42:18.484Z,101412.67
2018-03-18T21:44:44.344Z,101412.49
2018-03-18T21:47:10.235Z,101411.72
2018-03-18T21:49:36.165Z,101414.36
2018-03-18T21:52:02.049Z,101411.78
2018-03-18T21:54:27.940Z,101411.22
2018-03-18T21:56:53.792Z,101409.42
2018-03-18T21:59:19.642Z,101417.48
2018-03-18T22:01:45.550Z,101415.31
2018-03-18T22:04:11.395Z,101411.75
2018-03-18T22:06:37.264Z,101416.84
2018-03-18T22:09:03.234Z,101417.06
2018-03-18T22:11:29.141Z,101412.95
2018-03-18T22:13:55.006Z,101415.93
2018-03-18T22:16:20.941Z,101411.66
2018-03-18T22:18:46.785Z,101420.17
2018-03-18T22:21:12.674Z,101416.19
2018-03-18T22:23:38.585Z,101407.75
2018-03-18T22:26:04.454Z,101406.83
2018-03-18T22:28:30.323Z,101407.72
2018-03-18T22:30:56.237Z,101406.14
2018-03-18T22:33:22.145Z,101404.64
2018-03-18T22:35:48.093Z,101404.11
2018-03-18T22:38:13.982Z,101403.31
2018-03-18T22:40:39.834Z,101399.60
2018-03-18T22:43:05.694Z,101402.58
2018-03-18T22:45:31.618Z,101398.94
2018-03-18T22:47:57.624Z,101394.09
2018-03-18T22:50:23.485Z,101400.83
2018-03-18T22:52:49.379Z,101409.60
2018-03-18T22:55:15.237Z,101405.97
2018-03-18T22:57:41.090Z,101404.49
2018-03-18T23:00:07.857Z,101408.55
2018-03-18T23:02:33.736Z,101401.84
2018-03-18T23:04:59.589Z,101409.86
2018-03-18T23:07:25.489Z,101403.50
2018-03-18T23:09:51.337Z,101406.96
2018-03-18T23:12:17.277Z,101390.43
2018-03-18T23:14:43.263Z,101404.09
2018-03-18T23:17:09.122Z,101397.45
2018-03-18T23:19:34.978Z,101397.41
2018-03-18T23:22:00.860Z,101391.83
2018-03-18T23:24:26.811Z,101395.28
2018-03-18T23:26:52.774Z,101389.33
2018-03-18T23:29:18.684Z,101379.08
2018-03-18T23:31:44.533Z,101386.69
2018-03-18T23:34:10.385Z,101379.63
2018-03-18T23:36:36.400Z,101377.75
2018-03-18T23:39:02.351Z,101379.96
2018-03-18T23:41:28.232Z,101372.50
2018-03-18T23:43:54.144Z,101377.64
2018-03-18T23:46:19.994Z,101384.54
2018-03-18T23:48:45.953Z,101370.27
2018-03-18T23:51:12.224Z,101376.79
2018-03-18T23:53:38.067Z,101380.98
2018-03-18T23:56:03.929Z,101373.38
2018-03-18T23:58:29.865Z,101373.41
